createdAt,value
2023-12-04T00:01:53.174Z,8.23
2023-12-04T00:04:21.198Z,9.80
2023-12-04T00:06:48.919Z,10.23
2023-12-04T00:09:16.680Z,7.73
2023-12-04T00:11:44.482Z,7.27
2023-12-04T00:14:12.338Z,10.30
2023-12-04T00:16:41.318Z,10.57
2023-12-04T00:19:09.165Z,7.43
2023-12-04T00:21:37.108Z,9.47
2023-12-04T00:24:05.286Z,8.30
2023-12-04T00:26:33.063Z,16.17
2023-12-04T00:29:00.777Z,10.97
2023-12-04T00:31:28.698Z,11.67
2023-12-04T00:33:57.772Z,11.33
2023-12-04T00:36:25.519Z,12.50
2023-12-04T00:38:53.199Z,11.77
2023-12-04T00:41:20.866Z,14.27
2023-12-04T00:43:48.545Z,14.17
2023-12-04T00:46:16.184Z,16.23
2023-12-04T00:48:43.993Z,16.57
2023-12-04T00:51:12.968Z,15.57
2023-12-04T00:53:40.784Z,13.73
2023-12-04T00:56:08.946Z,12.63
2023-12-04T00:58:36.616Z,15.07
2023-12-04T01:01:04.418Z,15.30
2023-12-04T01:03:50.868Z,13.93
2023-12-04T01:06:27.221Z,15.37
2023-12-04T01:08:56.215Z,15.87
2023-12-04T01:11:24.139Z,20.47
2023-12-04T01:13:51.818Z,14.60
2023-12-04T01:16:19.504Z,13.87
2023-12-04T01:18:47.336Z,14.90
2023-12-04T01:21:15.465Z,17.60
2023-12-04T01:23:44.535Z,17.10
2023-12-04T01:26:13.024Z,17.90
2023-12-04T01:28:40.685Z,17.20
2023-12-04T01:31:08.848Z,18.47
2023-12-04T01:33:36.689Z,21.63
2023-12-04T01:36:04.596Z,17.87
2023-12-04T01:38:32.288Z,20.63
2023-12-04T01:41:01.320Z,20.10
2023-12-04T01:43:29.796Z,18.33
2023-12-04T01:45:58.424Z,18.93
2023-12-04T01:48:26.689Z,21.53
2023-12-04T01:50:55.032Z,18.83
2023-12-04T01:53:23.042Z,19.60
2023-12-04T01:55:51.420Z,27.70
2023-12-04T01:58:20.497Z,21.97
2023-12-04T02:00:48.850Z,16.13
2023-12-04T02:03:16.705Z,23.37
2023-12-04T02:05:46.044Z,18.43
2023-12-04T02:08:13.839Z,22.30
2023-12-04T02:10:41.664Z,18.70
2023-12-04T02:13:09.409Z,19.37
2023-12-04T02:15:38.529Z,18.07
2023-12-04T02:18:06.305Z,16.00
2023-12-04T02:20:34.511Z,14.37
2023-12-04T02:23:02.551Z,16.23
2023-12-04T02:25:37.009Z,15.23
2023-12-04T02:28:07.835Z,18.00
2023-12-04T02:30:38.431Z,19.03
2023-12-04T02:33:07.394Z,17.10
2023-12-04T02:35:36.168Z,17.33
2023-12-04T02:38:04.636Z,16.93
2023-12-04T02:40:33.810Z,19.03
2023-12-04T02:43:01.592Z,16.83
2023-12-04T02:45:29.291Z,18.57
2023-12-04T02:47:57.691Z,15.70
2023-12-04T02:50:25.435Z,22.40
2023-12-04T02:52:53.092Z,16.33
2023-12-04T02:55:21.308Z,16.13
2023-12-04T02:57:50.223Z,21.27
2023-12-04T03:00:18.106Z,17.43
2023-12-04T03:02:45.811Z,17.33
2023-12-04T03:05:13.628Z,14.90
2023-12-04T03:07:41.351Z,13.33
2023-12-04T03:10:09.626Z,11.30
2023-12-04T03:12:37.381Z,12.20
2023-12-04T03:15:06.703Z,10.93
2023-12-04T03:17:34.399Z,12.47
2023-12-04T03:20:02.147Z,9.30
2023-12-04T03:22:29.861Z,9.60
2023-12-04T03:24:58.133Z,6.67
2023-12-04T03:27:26.054Z,9.33
2023-12-04T03:29:53.737Z,8.83
2023-12-04T03:32:22.731Z,9.60
2023-12-04T03:34:50.386Z,8.17
2023-12-04T03:37:18.087Z,9.43
2023-12-04T03:39:45.804Z,9.27
2023-12-04T03:42:13.539Z,9.23
2023-12-04T03:44:41.324Z,6.93
2023-12-04T03:47:09.070Z,9.13
2023-12-04T03:49:38.165Z,10.33
2023-12-04T03:52:06.192Z,10.83
2023-12-04T03:54:33.942Z,10.30
2023-12-04T03:57:01.919Z,9.37
2023-12-04T03:59:29.612Z,11.50
2023-12-04T04:01:57.917Z,7.33
2023-12-04T04:04:25.676Z,8.50
2023-12-04T04:06:54.741Z,9.73
2023-12-04T04:09:23.104Z,10.83
2023-12-04T04:11:50.861Z,11.43
2023-12-04T04:14:18.588Z,12.03
2023-12-04T04:16:46.421Z,10.17
2023-12-04T04:19:14.710Z,11.23
2023-12-04T04:21:42.833Z,13.57
2023-12-04T04:24:11.946Z,12.10
2023-12-04T04:26:39.687Z,12.80
2023-12-04T04:29:07.381Z,20.57
2023-12-04T04:31:35.095Z,13.93
2023-12-04T04:34:03.488Z,15.33
2023-12-04T04:36:31.281Z,16.83
2023-12-04T04:38:59.009Z,17.13
2023-12-04T04:41:27.969Z,13.67
2023-12-04T04:43:55.636Z,15.23
2023-12-04T04:46:23.378Z,13.77
2023-12-04T04:48:51.223Z,18.60
2023-12-04T04:51:18.905Z,14.43
2023-12-04T04:53:46.594Z,15.90
2023-12-04T04:56:14.621Z,19.13
2023-12-04T04:58:43.574Z,18.07
2023-12-04T05:01:11.303Z,19.63
2023-12-04T05:03:39.177Z,22.33
2023-12-04T05:06:07.103Z,22.83
2023-12-04T05:08:34.801Z,22.40
2023-12-04T05:11:02.454Z,18.90
2023-12-04T05:13:30.141Z,20.30
2023-12-04T05:15:59.448Z,21.60
2023-12-04T05:18:27.460Z,23.10
2023-12-04T05:20:55.564Z,20.67
2023-12-04T05:23:23.288Z,22.37
2023-12-04T05:25:51.027Z,20.70
2023-12-04T05:28:19.130Z,25.03
2023-12-04T05:30:47.092Z,21.93
2023-12-04T05:33:16.202Z,21.10
2023-12-04T05:35:43.942Z,23.23
2023-12-04T05:38:12.063Z,21.33
2023-12-04T05:40:39.781Z,25.63
2023-12-04T05:43:07.513Z,24.97
2023-12-04T05:45:35.290Z,23.93
2023-12-04T05:48:03.095Z,22.73
2023-12-04T05:50:32.065Z,27.33
2023-12-04T05:53:00.175Z,22.47
2023-12-04T05:55:28.028Z,23.37
2023-12-04T05:57:55.794Z,28.73
2023-12-04T06:00:26.068Z,21.33
2023-12-04T06:02:55.266Z,21.27
2023-12-04T06:05:24.197Z,19.60
2023-12-04T06:07:53.172Z,29.10
2023-12-04T06:10:20.892Z,20.97
2023-12-04T06:13:07.281Z,19.80
2023-12-04T06:15:35.159Z,22.47
2023-12-04T06:18:02.993Z,19.57
2023-12-04T06:20:30.696Z,19.77
2023-12-04T06:23:00.290Z,19.83
2023-12-04T06:25:28.155Z,18.60
2023-12-04T06:27:55.981Z,22.77
2023-12-04T06:30:23.960Z,22.77
2023-12-04T06:32:51.793Z,21.13
2023-12-04T06:35:20.672Z,21.63
2023-12-04T06:37:50.209Z,24.77
2023-12-04T06:40:19.662Z,23.10
2023-12-04T06:42:47.629Z,25.93
2023-12-04T06:45:15.667Z,21.50
2023-12-04T06:47:45.261Z,23.83
2023-12-04T06:50:13.094Z,23.73
2023-12-04T06:52:40.776Z,29.10
2023-12-04T06:55:09.333Z,26.57
2023-12-04T06:57:38.326Z,22.37
2023-12-04T07:00:20.735Z,25.57
2023-12-04T07:02:50.843Z,23.93
2023-12-04T07:05:19.601Z,28.63
2023-12-04T07:07:47.446Z,26.93
2023-12-04T07:10:16.347Z,24.33
2023-12-04T07:12:46.154Z,25.90
2023-12-04T07:15:14.112Z,27.80
2023-12-04T07:17:41.916Z,20.37
2023-12-04T07:20:10.671Z,18.80
2023-12-04T07:22:39.245Z,15.87
2023-12-04T07:25:07.942Z,15.90
2023-12-04T07:27:36.507Z,23.87
2023-12-04T07:30:06.119Z,23.07
2023-12-04T07:32:34.298Z,25.97
2023-12-04T07:35:02.218Z,27.73
2023-12-04T07:37:33.086Z,23.60
2023-12-04T07:40:01.275Z,23.00
2023-12-04T07:42:29.471Z,29.23
2023-12-04T07:44:57.097Z,22.33
2023-12-04T07:47:26.371Z,27.50
2023-12-04T07:49:54.381Z,32.47
2023-12-04T07:52:22.106Z,26.37
2023-12-04T07:54:50.120Z,19.87
2023-12-04T07:57:17.956Z,24.53
2023-12-04T07:59:46.582Z,21.80
2023-12-04T08:02:15.216Z,24.70
2023-12-04T08:04:44.287Z,17.50
2023-12-04T08:07:12.096Z,24.47
2023-12-04T08:09:39.778Z,25.03
2023-12-04T08:12:07.801Z,24.07
2023-12-04T08:14:35.508Z,24.17
2023-12-04T08:17:03.170Z,27.87
2023-12-04T08:19:31.005Z,30.83
2023-12-04T08:22:00.119Z,25.57
2023-12-04T08:24:27.818Z,21.67
2023-12-04T08:26:56.084Z,23.80
2023-12-04T08:29:23.733Z,23.90
2023-12-04T08:31:51.845Z,23.17
2023-12-04T08:34:19.543Z,22.20
2023-12-04T08:36:47.403Z,24.47
2023-12-04T08:39:16.440Z,23.57
2023-12-04T08:41:54.977Z,23.03
2023-12-04T08:44:29.431Z,25.90
2023-12-04T08:46:58.814Z,24.87
2023-12-04T08:49:35.566Z,28.20
2023-12-04T08:52:07.848Z,27.10
2023-12-04T08:54:36.818Z,27.00
2023-12-04T08:57:06.534Z,25.20
2023-12-04T08:59:34.471Z,30.00
2023-12-04T09:02:04.997Z,23.37
2023-12-04T09:04:33.639Z,27.83
2023-12-04T09:08:26.323Z,22.73
2023-12-04T09:09:51.522Z,27.83
2023-12-04T09:12:19.763Z,28.37
2023-12-04T09:14:47.463Z,26.50
2023-12-04T09:17:15.230Z,34.83
2023-12-04T09:19:43.038Z,37.47
2023-12-04T09:22:17.390Z,33.20
2023-12-04T09:24:47.412Z,30.30
2023-12-04T09:27:16.574Z,29.30
2023-12-04T09:29:44.385Z,40.17
2023-12-04T09:32:12.253Z,38.90
2023-12-04T09:34:40.010Z,34.10
2023-12-04T09:37:11.395Z,32.03
2023-12-04T09:39:40.470Z,36.80
2023-12-04T09:42:09.203Z,36.50
2023-12-04T09:44:38.718Z,33.33
2023-12-04T09:47:07.012Z,29.53
2023-12-04T09:49:34.989Z,30.43
2023-12-04T09:52:03.603Z,40.70
2023-12-04T09:54:31.995Z,40.57
2023-12-04T09:56:59.788Z,30.73
2023-12-04T09:59:27.823Z,30.03
2023-12-04T10:01:57.125Z,37.03
2023-12-04T10:04:25.676Z,53.17
2023-12-04T10:06:54.411Z,30.57
2023-12-04T10:09:23.607Z,26.73
2023-12-04T10:11:52.670Z,33.33
2023-12-04T10:14:21.158Z,34.93
2023-12-04T10:16:49.293Z,33.10
2023-12-04T10:19:19.603Z,31.47
2023-12-04T10:21:48.629Z,33.33
2023-12-04T10:24:29.064Z,35.03
2023-12-04T10:26:57.303Z,32.77
2023-12-04T10:29:25.535Z,33.57
2023-12-04T10:31:56.080Z,29.17
2023-12-04T10:34:27.223Z,34.27
2023-12-04T10:36:55.505Z,37.87
2023-12-04T10:39:23.284Z,31.63
2023-12-04T10:42:00.838Z,33.47
2023-12-04T10:44:29.606Z,30.57
2023-12-04T10:46:59.229Z,31.30
2023-12-04T10:49:30.621Z,30.37
2023-12-04T10:52:00.695Z,31.83
2023-12-04T10:54:28.858Z,34.10
2023-12-04T10:56:59.384Z,38.67
2023-12-04T10:59:29.582Z,30.53
2023-12-04T11:01:58.197Z,35.23
2023-12-04T11:04:27.189Z,35.10
2023-12-04T11:06:56.570Z,33.20
2023-12-04T11:09:27.894Z,33.50
2023-12-04T11:11:58.792Z,38.00
2023-12-04T11:14:28.327Z,29.13
2023-12-04T11:16:58.324Z,29.30
2023-12-04T11:19:34.223Z,24.70
2023-12-04T11:22:04.213Z,26.60
2023-12-04T11:24:32.432Z,21.63
2023-12-04T11:27:00.544Z,20.87
2023-12-04T11:29:28.672Z,21.70
2023-12-04T11:31:56.823Z,20.30
2023-12-04T11:34:26.329Z,24.30
2023-12-04T11:36:54.360Z,21.70
2023-12-04T11:39:23.406Z,22.53
2023-12-04T11:41:51.882Z,17.87
2023-12-04T11:44:20.371Z,20.23
2023-12-04T11:47:01.206Z,20.53
2023-12-04T11:49:30.920Z,22.70
2023-12-04T11:51:58.933Z,27.23
2023-12-04T11:54:29.150Z,27.50
2023-12-04T11:56:57.732Z,26.90
2023-12-04T11:59:26.285Z,22.03
2023-12-04T12:01:55.661Z,30.77
2023-12-04T12:04:23.523Z,23.57
2023-12-04T12:06:52.067Z,27.50
2023-12-04T12:09:20.530Z,28.47
2023-12-04T12:11:50.835Z,26.40
2023-12-04T12:14:21.882Z,27.83
2023-12-04T12:16:49.604Z,28.17
2023-12-04T12:19:19.792Z,24.77
2023-12-04T12:21:48.747Z,24.30
2023-12-04T12:24:16.613Z,20.07
2023-12-04T12:26:44.394Z,20.77
2023-12-04T12:29:13.771Z,21.87
2023-12-04T12:31:41.811Z,12.27
2023-12-04T12:34:09.668Z,14.83
2023-12-04T12:36:37.536Z,10.53
2023-12-04T12:39:05.725Z,12.30
2023-12-04T12:41:33.462Z,11.57
2023-12-04T12:44:02.821Z,14.80
2023-12-04T12:46:31.770Z,13.43
2023-12-04T12:48:59.941Z,14.77
2023-12-04T12:51:28.380Z,12.27
2023-12-04T12:53:58.654Z,13.27
2023-12-04T12:56:27.035Z,14.30
2023-12-04T12:58:54.991Z,13.40
2023-12-04T13:01:26.369Z,14.87
2023-12-04T13:03:58.382Z,12.53
2023-12-04T13:06:26.602Z,9.67
2023-12-04T13:08:55.261Z,11.80
2023-12-04T13:11:23.004Z,14.73
2023-12-04T13:13:50.726Z,11.23
2023-12-04T13:16:18.480Z,22.60
2023-12-04T13:18:46.216Z,20.10
2023-12-04T13:21:15.230Z,14.60
2023-12-04T13:23:42.852Z,8.87
2023-12-04T13:26:11.598Z,10.77
2023-12-04T13:28:44.175Z,16.40
2023-12-04T13:31:12.461Z,13.63
2023-12-04T13:33:40.329Z,16.23
2023-12-04T13:36:09.032Z,11.13
2023-12-04T13:38:38.358Z,11.37
2023-12-04T13:41:30.312Z,11.87
2023-12-04T13:43:57.140Z,14.60
2023-12-04T13:46:24.977Z,15.17
2023-12-04T13:48:52.710Z,19.03
2023-12-04T13:51:21.035Z,19.30
2023-12-04T13:53:51.232Z,14.53
2023-12-04T13:56:36.532Z,12.77
2023-12-04T13:59:06.159Z,9.13
2023-12-04T14:01:33.916Z,10.90
2023-12-04T14:04:03.249Z,10.23
2023-12-04T14:06:31.476Z,17.53
2023-12-04T14:09:00.900Z,9.23
2023-12-04T14:11:28.726Z,10.13
2023-12-04T14:13:56.443Z,7.50
2023-12-04T14:16:24.199Z,7.10
2023-12-04T14:18:51.879Z,13.53
2023-12-04T14:21:19.519Z,12.43
2023-12-04T14:23:47.195Z,11.20
2023-12-04T14:26:16.279Z,11.73
2023-12-04T14:28:44.144Z,10.87
2023-12-04T14:31:12.143Z,5.90
2023-12-04T14:33:42.235Z,6.67
2023-12-04T14:36:12.976Z,6.93
2023-12-04T14:38:41.223Z,7.80
2023-12-04T14:41:10.185Z,6.27
2023-12-04T14:43:40.047Z,8.07
2023-12-04T14:46:10.630Z,9.00
2023-12-04T14:48:39.744Z,6.70
2023-12-04T14:51:07.747Z,7.93
2023-12-04T14:53:44.967Z,6.17
2023-12-04T14:56:27.019Z,6.27
2023-12-04T14:59:20.821Z,4.90
2023-12-04T15:01:59.145Z,4.37
2023-12-04T15:04:40.864Z,5.77
2023-12-04T15:07:35.346Z,8.27
2023-12-04T15:10:24.121Z,12.10
2023-12-04T15:13:20.134Z,17.00
2023-12-04T15:16:15.168Z,19.27
2023-12-04T15:19:01.505Z,19.63
2023-12-04T15:21:29.951Z,24.07
2023-12-04T15:23:57.907Z,20.93
2023-12-04T15:26:24.816Z,19.97
2023-12-04T15:28:52.544Z,23.13
2023-12-04T15:31:21.148Z,16.57
2023-12-04T15:33:49.214Z,22.90
2023-12-04T15:36:18.058Z,23.50
2023-12-04T15:38:45.785Z,28.23
2023-12-04T15:41:13.487Z,22.10
2023-12-04T15:43:40.287Z,26.27
2023-12-04T15:46:08.054Z,24.13
2023-12-04T15:48:37.155Z,28.47
2023-12-04T15:51:04.220Z,24.77
2023-12-04T15:53:31.882Z,24.90
2023-12-04T15:55:58.692Z,25.50
2023-12-04T15:58:26.398Z,25.40
2023-12-04T16:00:53.323Z,29.87
2023-12-04T16:03:21.842Z,23.53
2023-12-04T16:05:50.907Z,24.43
2023-12-04T16:08:18.655Z,24.90
2023-12-04T16:10:46.771Z,27.23
2023-12-04T16:13:16.868Z,25.67
2023-12-04T16:15:47.260Z,27.03
2023-12-04T16:18:15.297Z,21.80
2023-12-04T16:20:43.132Z,25.87
2023-12-04T16:23:12.053Z,32.23
2023-12-04T16:25:39.792Z,26.70
2023-12-04T16:28:11.087Z,31.07
2023-12-04T16:30:39.437Z,25.50
2023-12-04T16:33:07.387Z,26.93
2023-12-04T16:35:35.407Z,22.37
2023-12-04T16:38:04.012Z,23.67
2023-12-04T16:40:33.053Z,31.83
2023-12-04T16:43:02.903Z,32.60
2023-12-04T16:45:31.113Z,27.43
2023-12-04T16:47:59.245Z,26.17
2023-12-04T16:50:28.218Z,36.17
2023-12-04T16:52:56.128Z,33.10
2023-12-04T16:55:23.790Z,38.23
2023-12-04T16:57:52.900Z,28.73
2023-12-04T17:00:20.772Z,15.50
2023-12-04T17:02:48.478Z,16.70
2023-12-04T17:05:17.466Z,13.63
2023-12-04T17:07:45.781Z,10.50
2023-12-04T17:10:13.492Z,10.17
2023-12-04T17:13:00.874Z,10.97
2023-12-04T17:15:28.792Z,8.60
2023-12-04T17:17:56.718Z,18.70
2023-12-04T17:20:24.430Z,24.27
2023-12-04T17:22:52.580Z,16.40
2023-12-04T17:25:20.308Z,19.53
2023-12-04T17:27:47.989Z,19.30
2023-12-04T17:30:17.209Z,27.07
2023-12-04T17:32:45.187Z,26.00
2023-12-04T17:35:13.156Z,26.40
2023-12-04T17:37:41.996Z,17.57
2023-12-04T17:40:10.202Z,17.53
2023-12-04T17:42:38.829Z,11.00
2023-12-04T17:45:08.868Z,7.40
2023-12-04T17:47:38.048Z,6.27
2023-12-04T17:50:09.061Z,4.63
2023-12-04T17:52:36.762Z,6.93
2023-12-04T17:55:04.590Z,6.60
2023-12-04T17:57:32.385Z,7.80
2023-12-04T18:00:00.109Z,4.77
2023-12-04T18:02:27.819Z,5.47
2023-12-04T18:04:57.455Z,6.03
2023-12-04T18:07:25.203Z,10.00
2023-12-04T18:09:52.935Z,10.93
2023-12-04T18:12:20.757Z,12.73
2023-12-04T18:14:51.600Z,16.90
2023-12-04T18:17:20.978Z,14.40
2023-12-04T18:19:51.975Z,12.43
2023-12-04T18:22:20.996Z,24.60
2023-12-04T18:24:48.776Z,18.80
2023-12-04T18:27:16.930Z,24.47
2023-12-04T18:29:45.000Z,23.13
2023-12-04T18:32:13.439Z,22.23
2023-12-04T18:34:41.362Z,30.63
2023-12-04T18:37:11.806Z,18.23
2023-12-04T18:39:42.622Z,20.23
2023-12-04T18:42:10.837Z,21.07
2023-12-04T18:44:38.729Z,16.63
2023-12-04T18:47:10.550Z,17.57
2023-12-04T18:49:39.194Z,21.90
2023-12-04T18:52:07.227Z,24.80
2023-12-04T18:54:35.008Z,27.00
2023-12-04T18:57:04.069Z,34.40
2023-12-04T18:59:31.744Z,30.53
2023-12-04T19:01:59.533Z,36.97
2023-12-04T19:04:27.312Z,31.17
2023-12-04T19:06:55.124Z,27.77
2023-12-04T19:09:23.042Z,28.87
2023-12-04T19:12:09.413Z,23.73
2023-12-04T19:14:40.607Z,28.73
2023-12-04T19:17:08.345Z,26.40
2023-12-04T19:19:36.605Z,27.63
2023-12-04T19:22:04.469Z,25.83
2023-12-04T19:24:32.694Z,22.70
2023-12-04T19:27:00.406Z,15.10
2023-12-04T19:29:29.970Z,10.03
2023-12-04T19:31:59.876Z,7.47
2023-12-04T19:34:27.934Z,10.07
2023-12-04T19:36:55.854Z,25.33
2023-12-04T19:39:23.679Z,35.73
2023-12-04T19:41:51.508Z,27.60
2023-12-04T19:44:19.221Z,25.80
2023-12-04T19:46:46.897Z,31.90
2023-12-04T19:49:15.846Z,33.27
2023-12-04T19:51:44.621Z,22.43
2023-12-04T19:54:12.573Z,24.40
2023-12-04T19:56:43.479Z,21.53
2023-12-04T19:59:11.247Z,25.43
2023-12-04T20:01:39.070Z,23.07
2023-12-04T20:04:07.181Z,25.73
2023-12-04T20:06:36.499Z,23.70
2023-12-04T20:09:05.810Z,23.17
2023-12-04T20:11:33.489Z,23.10
2023-12-04T20:14:01.174Z,17.53
2023-12-04T20:16:29.133Z,22.53
2023-12-04T20:18:57.134Z,20.30
2023-12-04T20:21:24.889Z,22.00
2023-12-04T20:23:53.901Z,19.40
2023-12-04T20:26:21.566Z,25.10
2023-12-04T20:28:49.854Z,21.77
2023-12-04T20:31:17.636Z,27.73
2023-12-04T20:33:45.430Z,20.77
2023-12-04T20:36:13.427Z,21.37
2023-12-04T20:38:41.296Z,24.27
2023-12-04T20:41:10.549Z,22.17
2023-12-04T20:43:38.533Z,22.67
2023-12-04T20:46:07.543Z,25.07
2023-12-04T20:48:35.935Z,19.57
2023-12-04T20:51:03.921Z,20.40
2023-12-04T20:53:31.557Z,19.57
2023-12-04T20:55:59.299Z,17.23
2023-12-04T20:58:28.505Z,17.63
2023-12-04T21:00:56.520Z,19.20
2023-12-04T21:03:25.076Z,18.73
2023-12-04T21:05:52.888Z,21.23
2023-12-04T21:08:21.856Z,16.57
2023-12-04T21:10:49.643Z,22.47
2023-12-04T21:13:17.397Z,19.30
2023-12-04T21:15:47.881Z,27.10
2023-12-04T21:18:16.222Z,23.07
2023-12-04T21:20:45.564Z,25.70
2023-12-04T21:23:13.317Z,27.93
2023-12-04T21:25:41.502Z,32.97
2023-12-04T21:28:09.217Z,25.57
2023-12-04T21:30:37.482Z,25.30
2023-12-04T21:33:07.414Z,23.93
2023-12-04T21:35:36.848Z,23.90
2023-12-04T21:38:04.686Z,23.10
2023-12-04T21:40:32.530Z,25.67
2023-12-04T21:43:00.319Z,24.20
2023-12-04T21:45:28.624Z,26.20
2023-12-04T21:47:56.706Z,21.97
2023-12-04T21:50:25.701Z,28.10
2023-12-04T21:52:53.389Z,23.80
2023-12-04T21:55:21.390Z,22.17
2023-12-04T21:57:49.227Z,20.43
2023-12-04T22:00:17.285Z,18.73
2023-12-04T22:02:46.280Z,20.00
2023-12-04T22:05:14.382Z,26.77
2023-12-04T22:07:43.915Z,21.53
2023-12-04T22:10:11.667Z,25.83
2023-12-04T22:12:39.619Z,23.97
2023-12-04T22:15:07.833Z,23.00
2023-12-04T22:17:35.519Z,20.70
2023-12-04T22:20:05.608Z,24.67
2023-12-04T22:22:33.424Z,22.40
2023-12-04T22:25:02.797Z,23.63
2023-12-04T22:27:30.546Z,22.83
2023-12-04T22:29:58.240Z,22.93
2023-12-04T22:32:26.036Z,19.23
2023-12-04T22:34:53.788Z,19.90
2023-12-04T22:37:22.286Z,9.13
2023-12-04T22:39:50.119Z,6.60
2023-12-04T22:42:19.169Z,8.23
2023-12-04T22:44:47.653Z,8.07
2023-12-04T22:47:15.459Z,5.57
2023-12-04T22:49:44.091Z,5.17
2023-12-04T22:52:11.858Z,4.70
2023-12-04T22:54:39.626Z,4.83
2023-12-04T22:57:27.281Z,2.80
2023-12-04T22:59:55.299Z,5.47
2023-12-04T23:02:22.977Z,4.00
2023-12-04T23:04:50.967Z,3.53
2023-12-04T23:07:18.802Z,3.30
2023-12-04T23:09:46.607Z,3.73
2023-12-04T23:12:14.380Z,3.53
2023-12-04T23:14:43.660Z,3.90
2023-12-04T23:17:11.390Z,4.83
2023-12-04T23:19:39.085Z,17.57
2023-12-04T23:22:06.786Z,19.57
2023-12-04T23:24:34.543Z,22.67
2023-12-04T23:27:02.235Z,19.10
2023-12-04T23:29:29.921Z,22.60
2023-12-04T23:31:58.883Z,26.57
2023-12-04T23:34:26.696Z,26.43
2023-12-04T23:36:54.449Z,23.83
2023-12-04T23:39:22.977Z,22.07
2023-12-04T23:41:50.655Z,24.27
2023-12-04T23:44:18.390Z,23.00
2023-12-04T23:46:46.054Z,22.10
2023-12-04T23:49:15.080Z,17.03
2023-12-04T23:51:42.820Z,13.93
2023-12-04T23:54:10.612Z,10.30
2023-12-04T23:56:38.380Z,10.70
2023-12-04T23:59:06.143Z,9.63
